createdAt,value
2022-11-05T00:00:56.742Z,8.40
2022-11-05T00:04:01.966Z,8.40
2022-11-05T00:07:19.080Z,8.40
2022-11-05T00:10:18.195Z,8.40
2022-11-05T00:13:35.300Z,8.40
2022-11-05T00:16:42.946Z,8.50
2022-11-05T00:19:29.644Z,8.50
2022-11-05T00:22:37.015Z,8.40
2022-11-05T00:25:23.730Z,8.40
2022-11-05T00:28:10.412Z,8.40
2022-11-05T00:31:05.989Z,8.30
2022-11-05T00:33:52.739Z,8.30
2022-11-05T00:36:39.520Z,8.20
2022-11-05T00:39:26.308Z,8.20
2022-11-05T00:42:33.348Z,8.20
2022-11-05T00:45:20.869Z,8.20
2022-11-05T00:48:26.204Z,8.20
2022-11-05T00:51:12.926Z,8.20
2022-11-05T00:53:59.629Z,8.20
2022-11-05T00:56:46.291Z,8.20
2022-11-05T00:59:33.023Z,8.20
2022-11-05T01:02:19.884Z,8.30
2022-11-05T01:05:06.938Z,8.30
2022-11-05T01:07:54.256Z,8.30
2022-11-05T01:10:49.309Z,8.30
2022-11-05T01:13:36.568Z,8.30
2022-11-05T01:16:23.292Z,8.30
2022-11-05T01:19:11.204Z,8.30
2022-11-05T01:21:57.955Z,8.30
2022-11-05T01:24:44.673Z,8.40
2022-11-05T01:27:31.396Z,8.40
2022-11-05T01:30:18.207Z,8.30
2022-11-05T01:33:05.221Z,8.30
2022-11-05T01:35:53.661Z,8.20
2022-11-05T01:38:40.429Z,8.20
2022-11-05T01:41:27.220Z,8.20
2022-11-05T01:44:51.322Z,8.20
2022-11-05T01:48:16.439Z,8.20
2022-11-05T01:51:08.630Z,8.20
2022-11-05T01:54:09.894Z,8.20
2022-11-05T01:57:02.126Z,8.20
2022-11-05T01:59:56.411Z,8.20
2022-11-05T02:02:44.194Z,8.20
2022-11-05T02:05:31.010Z,8.20
2022-11-05T02:08:43.082Z,8.20
2022-11-05T02:11:30.014Z,8.20
2022-11-05T02:14:17.031Z,8.20
2022-11-05T02:17:31.147Z,8.10
2022-11-05T02:20:23.773Z,8.00
2022-11-05T02:23:19.392Z,7.90
2022-11-05T02:26:24.248Z,7.90
2022-11-05T02:29:17.304Z,7.80
2022-11-05T02:32:29.185Z,7.80
2022-11-05T02:35:31.095Z,7.80
2022-11-05T02:38:47.588Z,7.80
2022-11-05T02:41:52.263Z,7.90
2022-11-05T02:44:52.553Z,7.90
2022-11-05T02:47:46.909Z,8.00
2022-11-05T02:50:35.218Z,8.00
2022-11-05T02:53:45.636Z,8.10
2022-11-05T02:56:46.309Z,8.10
2022-11-05T02:59:33.192Z,8.20
2022-11-05T03:02:20.027Z,8.20
2022-11-05T03:05:06.883Z,8.20
2022-11-05T03:08:00.507Z,8.20
2022-11-05T03:10:57.900Z,8.10
2022-11-05T03:13:57.580Z,8.20
2022-11-05T03:17:08.599Z,8.10
2022-11-05T03:20:07.309Z,8.00
2022-11-05T03:22:53.966Z,8.00
2022-11-05T03:25:51.712Z,8.00
2022-11-05T03:28:43.160Z,7.90
2022-11-05T03:31:31.636Z,7.90
2022-11-05T03:34:21.771Z,8.00
2022-11-05T03:37:09.832Z,8.00
2022-11-05T03:40:00.350Z,8.00
2022-11-05T03:42:52.143Z,8.00
2022-11-05T03:45:44.765Z,8.00
2022-11-05T03:48:36.558Z,8.00
2022-11-05T03:51:46.423Z,8.00
2022-11-05T03:54:34.691Z,7.90
2022-11-05T03:57:26.528Z,7.90
2022-11-05T04:00:13.709Z,7.90
2022-11-05T04:03:00.549Z,7.90
2022-11-05T04:06:08.137Z,8.00
2022-11-05T04:09:13.883Z,8.00
2022-11-05T04:12:19.440Z,8.10
2022-11-05T04:15:06.736Z,8.20
2022-11-05T04:17:54.057Z,8.30
2022-11-05T04:20:59.223Z,8.40
2022-11-05T04:24:04.644Z,8.40
2022-11-05T04:26:51.368Z,8.50
2022-11-05T04:29:56.582Z,8.50
2022-11-05T04:32:43.272Z,8.50
2022-11-05T04:35:38.807Z,8.40
2022-11-05T04:38:25.604Z,8.40
2022-11-05T04:41:16.440Z,8.40
2022-11-05T04:44:03.301Z,8.30
2022-11-05T04:46:50.002Z,8.30
2022-11-05T04:49:36.736Z,8.30
2022-11-05T04:52:26.581Z,8.30
2022-11-05T04:55:13.724Z,8.40
2022-11-05T04:58:00.494Z,8.40
2022-11-05T05:00:49.675Z,8.50
2022-11-05T05:03:36.490Z,8.50
2022-11-05T05:06:23.338Z,8.50
2022-11-05T05:09:10.101Z,8.50
2022-11-05T05:11:56.881Z,8.50
2022-11-05T05:14:43.661Z,8.50
2022-11-05T05:17:30.403Z,8.50
2022-11-05T05:20:35.814Z,8.50
2022-11-05T05:23:22.506Z,8.60
2022-11-05T05:26:09.906Z,8.70
2022-11-05T05:28:57.121Z,8.70
2022-11-05T05:31:44.272Z,8.70
2022-11-05T05:34:30.961Z,8.70
2022-11-05T05:37:17.991Z,8.70
2022-11-05T05:40:04.983Z,8.70
2022-11-05T05:42:57.476Z,8.70
2022-11-05T05:45:44.568Z,8.70
2022-11-05T05:48:31.797Z,8.60
2022-11-05T05:51:19.765Z,8.60
2022-11-05T05:54:06.460Z,8.60
2022-11-05T05:56:53.221Z,8.50
2022-11-05T05:59:39.960Z,8.40
2022-11-05T06:02:26.792Z,8.40
2022-11-05T06:05:13.757Z,8.40
2022-11-05T06:08:00.517Z,8.40
2022-11-05T06:10:51.706Z,8.40
2022-11-05T06:13:38.624Z,8.30
2022-11-05T06:16:25.381Z,8.30
2022-11-05T06:19:12.099Z,8.20
2022-11-05T06:21:58.940Z,8.20
2022-11-05T06:24:45.670Z,8.10
2022-11-05T06:27:32.464Z,8.10
2022-11-05T06:30:20.986Z,8.10
2022-11-05T06:33:07.917Z,8.10
2022-11-05T06:35:58.120Z,8.10
2022-11-05T06:38:44.983Z,8.20
2022-11-05T06:41:31.723Z,8.10
2022-11-05T06:44:18.520Z,8.10
2022-11-05T06:47:05.249Z,8.20
2022-11-05T06:49:52.061Z,8.10
2022-11-05T06:52:41.267Z,8.10
2022-11-05T06:55:29.855Z,8.20
2022-11-05T06:58:16.743Z,8.20
2022-11-05T07:01:05.931Z,8.20
2022-11-05T07:03:53.260Z,8.20
2022-11-05T07:06:39.993Z,8.10
2022-11-05T07:09:27.501Z,8.10
2022-11-05T07:12:14.477Z,8.10
2022-11-05T07:15:01.179Z,8.10
2022-11-05T07:17:47.882Z,8.10
2022-11-05T07:20:34.987Z,8.10
2022-11-05T07:23:21.813Z,8.10
2022-11-05T07:26:08.619Z,8.10
2022-11-05T07:28:55.460Z,8.20
2022-11-05T07:31:42.132Z,8.10
2022-11-05T07:34:28.877Z,8.10
2022-11-05T07:37:16.744Z,8.10
2022-11-05T07:40:03.515Z,8.20
2022-11-05T07:42:53.018Z,8.30
2022-11-05T07:45:39.723Z,8.60
2022-11-05T07:48:26.424Z,8.80
2022-11-05T07:51:13.187Z,8.90
2022-11-05T07:53:59.961Z,9.10
2022-11-05T07:56:47.969Z,9.30
2022-11-05T07:59:34.629Z,9.40
2022-11-05T08:02:21.602Z,9.60
2022-11-05T08:05:09.783Z,9.60
2022-11-05T08:07:58.029Z,9.80
2022-11-05T08:10:45.225Z,9.80
2022-11-05T08:13:35.457Z,10.00
2022-11-05T08:16:22.133Z,10.10
2022-11-05T08:19:10.464Z,10.10
2022-11-05T08:21:57.184Z,10.00
2022-11-05T08:24:43.935Z,9.90
2022-11-05T08:27:30.668Z,9.80
2022-11-05T08:30:17.462Z,9.70
2022-11-05T08:33:07.022Z,9.60
2022-11-05T08:35:54.050Z,9.60
2022-11-05T08:38:40.768Z,9.50
2022-11-05T08:41:27.513Z,9.50
2022-11-05T08:44:14.278Z,9.60
2022-11-05T08:47:00.981Z,9.60
2022-11-05T08:49:47.752Z,9.70
2022-11-05T08:52:34.508Z,9.70
2022-11-05T08:55:21.283Z,9.60
2022-11-05T08:58:12.591Z,9.60
2022-11-05T09:01:04.687Z,9.50
2022-11-05T09:03:52.330Z,9.50
2022-11-05T09:06:39.065Z,9.50
2022-11-05T09:09:25.891Z,9.60
2022-11-05T09:12:13.200Z,9.60
2022-11-05T09:15:00.048Z,9.60
2022-11-05T09:17:46.752Z,9.70
2022-11-05T09:20:34.221Z,9.80
2022-11-05T09:23:21.021Z,9.90
2022-11-05T09:26:08.619Z,9.90
2022-11-05T09:28:55.533Z,10.00
2022-11-05T09:31:42.414Z,10.20
2022-11-05T09:34:29.171Z,10.20
2022-11-05T09:37:16.237Z,10.30
2022-11-05T09:40:03.376Z,10.30
2022-11-05T09:42:52.480Z,10.40
2022-11-05T09:45:39.192Z,10.40
2022-11-05T09:48:31.042Z,10.30
2022-11-05T09:51:23.636Z,10.20
2022-11-05T09:54:13.045Z,10.10
2022-11-05T09:57:02.800Z,10.10
2022-11-05T09:59:53.313Z,10.10
2022-11-05T10:02:54.930Z,10.00
2022-11-05T10:05:42.811Z,9.90
2022-11-05T10:08:37.867Z,9.90
2022-11-05T10:11:40.462Z,9.80
2022-11-05T10:14:36.374Z,9.70
2022-11-05T10:17:26.506Z,9.70
2022-11-05T10:20:33.874Z,9.60
2022-11-05T10:23:22.189Z,9.60
2022-11-05T10:26:15.452Z,9.60
2022-11-05T10:29:02.698Z,9.60
2022-11-05T10:31:50.921Z,9.60
2022-11-05T10:34:39.286Z,9.70
2022-11-05T10:37:27.176Z,9.80
2022-11-05T10:40:25.020Z,10.00
2022-11-05T10:43:30.549Z,10.20
2022-11-05T10:46:49.174Z,10.30
2022-11-05T10:50:09.602Z,10.30
2022-11-05T10:53:16.057Z,10.20
2022-11-05T10:56:02.918Z,10.20
2022-11-05T10:58:57.884Z,10.20
2022-11-05T11:01:44.723Z,10.10
2022-11-05T11:04:37.503Z,10.10
2022-11-05T11:07:26.827Z,10.20
2022-11-05T11:10:24.282Z,10.10
2022-11-05T11:13:48.403Z,10.10
2022-11-05T11:16:41.644Z,10.00
2022-11-05T11:19:34.093Z,9.90
2022-11-05T11:22:21.687Z,9.90
2022-11-05T11:25:26.037Z,9.80
2022-11-05T11:28:26.452Z,9.80
2022-11-05T11:31:14.780Z,9.80
2022-11-05T11:34:04.830Z,9.80
2022-11-05T11:36:55.446Z,9.80
2022-11-05T11:39:48.545Z,9.80
2022-11-05T11:42:39.109Z,9.80
2022-11-05T11:45:44.271Z,9.80
2022-11-05T11:48:34.171Z,9.70
2022-11-05T11:51:44.743Z,9.70
2022-11-05T11:54:35.356Z,9.70
2022-11-05T11:57:29.473Z,9.80
2022-11-05T12:00:17.814Z,9.70
2022-11-05T12:03:22.848Z,9.70
2022-11-05T12:06:36.420Z,9.70
2022-11-05T12:09:35.438Z,9.70
2022-11-05T12:12:49.626Z,9.70
2022-11-05T12:15:59.888Z,9.70
2022-11-05T12:19:16.131Z,9.90
2022-11-05T12:22:12.469Z,10.10
2022-11-05T12:25:27.298Z,10.30
2022-11-05T12:28:32.481Z,10.30
2022-11-05T12:31:31.803Z,10.30
2022-11-05T12:34:27.286Z,10.30
2022-11-05T12:37:38.640Z,10.20
2022-11-05T12:40:43.419Z,10.20
2022-11-05T12:43:48.912Z,10.10
2022-11-05T12:46:57.664Z,10.30
2022-11-05T12:49:44.327Z,10.70
2022-11-05T12:52:42.379Z,11.20
2022-11-05T12:55:49.394Z,11.50
2022-11-05T12:58:41.298Z,11.60
2022-11-05T13:01:35.455Z,11.60
2022-11-05T13:04:51.000Z,11.50
2022-11-05T13:07:53.705Z,11.20
2022-11-05T13:10:54.445Z,11.00
2022-11-05T13:13:52.126Z,10.70
2022-11-05T13:16:43.832Z,10.70
2022-11-05T13:19:53.725Z,10.80
2022-11-05T13:22:48.369Z,11.30
2022-11-05T13:25:39.106Z,12.70
2022-11-05T13:28:48.306Z,14.00
2022-11-05T13:31:40.312Z,14.30
2022-11-05T13:34:27.298Z,13.90
2022-11-05T13:37:37.522Z,13.20
2022-11-05T13:40:36.322Z,12.50
2022-11-05T13:43:45.098Z,11.90
2022-11-05T13:46:57.263Z,11.70
2022-11-05T13:50:11.526Z,11.50
2022-11-05T13:53:43.184Z,11.50
2022-11-05T13:56:35.745Z,11.50
2022-11-05T13:59:31.377Z,11.50
2022-11-05T14:02:22.797Z,11.50
2022-11-05T14:05:48.385Z,11.60
2022-11-05T14:08:41.411Z,11.80
2022-11-05T14:11:37.366Z,11.80
2022-11-05T14:14:27.883Z,11.70
2022-11-05T14:17:25.529Z,11.60
2022-11-05T14:20:30.302Z,11.50
2022-11-05T14:23:23.131Z,11.40
2022-11-05T14:26:22.315Z,11.30
2022-11-05T14:29:23.274Z,11.20
2022-11-05T14:32:21.576Z,11.10
2022-11-05T14:35:17.617Z,11.20
2022-11-05T14:38:06.496Z,11.20
2022-11-05T14:41:02.410Z,11.30
2022-11-05T14:44:01.399Z,11.20
2022-11-05T14:46:50.992Z,11.10
2022-11-05T14:49:51.106Z,11.00
2022-11-05T14:52:40.122Z,11.10
2022-11-05T14:55:37.049Z,11.10
2022-11-05T14:58:33.596Z,11.10
2022-11-05T15:01:32.312Z,11.00
2022-11-05T15:04:30.670Z,10.90
2022-11-05T15:07:33.115Z,10.80
2022-11-05T15:10:20.605Z,10.70
2022-11-05T15:13:08.737Z,10.60
2022-11-05T15:15:57.789Z,10.50
2022-11-05T15:18:47.197Z,10.40
2022-11-05T15:21:36.775Z,10.30
2022-11-05T15:24:28.045Z,10.30
2022-11-05T15:27:33.557Z,10.40
2022-11-05T15:30:23.100Z,10.40
2022-11-05T15:33:21.148Z,10.60
2022-11-05T15:36:19.992Z,10.60
2022-11-05T15:39:29.299Z,10.60
2022-11-05T15:42:25.350Z,10.50
2022-11-05T15:45:20.587Z,10.40
2022-11-05T15:48:15.670Z,10.20
2022-11-05T15:51:02.673Z,10.10
2022-11-05T15:54:23.808Z,9.90
2022-11-05T15:56:59.009Z,9.70
2022-11-05T15:59:47.062Z,9.50
2022-11-05T16:02:40.218Z,9.20
2022-11-05T16:05:29.833Z,9.10
2022-11-05T16:08:28.032Z,8.90
2022-11-05T16:11:22.733Z,8.80
2022-11-05T16:14:20.672Z,8.70
2022-11-05T16:17:23.516Z,8.60
2022-11-05T16:20:24.569Z,8.50
2022-11-05T16:23:24.917Z,8.40
2022-11-05T16:27:01.339Z,8.40
2022-11-05T16:29:49.114Z,8.40
2022-11-05T16:32:37.315Z,8.50
2022-11-05T16:35:25.132Z,8.50
2022-11-05T16:38:14.458Z,8.50
2022-11-05T16:41:01.389Z,8.50
2022-11-05T16:43:55.301Z,8.40
2022-11-05T16:46:52.382Z,8.30
2022-11-05T16:49:39.154Z,8.30
2022-11-05T16:52:28.173Z,8.30
2022-11-05T16:55:16.121Z,8.30
2022-11-05T16:58:02.769Z,8.20
2022-11-05T17:00:51.505Z,8.20
2022-11-05T17:03:38.263Z,8.10
2022-11-05T17:06:26.344Z,8.10
2022-11-05T17:09:13.016Z,8.10
2022-11-05T17:12:00.757Z,8.00
2022-11-05T17:14:47.431Z,8.00
2022-11-05T17:17:35.320Z,7.90
2022-11-05T17:20:40.341Z,7.90
2022-11-05T17:23:30.288Z,7.70
2022-11-05T17:26:17.067Z,7.60
2022-11-05T17:29:05.267Z,7.50
2022-11-05T17:31:52.237Z,7.60
2022-11-05T17:34:42.272Z,7.50
2022-11-05T17:37:28.991Z,7.40
2022-11-05T17:40:20.616Z,7.40
2022-11-05T17:43:08.209Z,7.40
2022-11-05T17:46:07.319Z,7.40
2022-11-05T17:48:57.133Z,7.40
2022-11-05T17:51:51.056Z,7.40
2022-11-05T17:54:40.518Z,7.30
2022-11-05T17:57:29.317Z,7.30
2022-11-05T18:00:19.017Z,7.20
2022-11-05T18:03:07.333Z,7.20
2022-11-05T18:05:54.005Z,7.00
2022-11-05T18:08:42.243Z,7.00
2022-11-05T18:11:28.987Z,7.00
2022-11-05T18:14:22.808Z,7.00
2022-11-05T18:17:10.856Z,6.90
2022-11-05T18:19:59.262Z,6.80
2022-11-05T18:22:47.901Z,6.70
2022-11-05T18:25:36.287Z,6.70
2022-11-05T18:28:23.772Z,6.80
2022-11-05T18:31:18.663Z,6.80
2022-11-05T18:34:05.588Z,6.80
2022-11-05T18:36:56.620Z,6.80
2022-11-05T18:39:43.787Z,6.80
2022-11-05T18:42:32.261Z,6.70
2022-11-05T18:45:19.146Z,6.60
2022-11-05T18:48:08.250Z,6.60
2022-11-05T18:51:00.670Z,6.50
2022-11-05T18:53:50.279Z,6.40
2022-11-05T18:56:37.169Z,6.40
2022-11-05T18:59:40.694Z,6.30
2022-11-05T19:02:27.989Z,6.20
2022-11-05T19:05:29.138Z,6.10
2022-11-05T19:08:16.531Z,6.20
2022-11-05T19:11:17.278Z,6.10
2022-11-05T19:14:04.058Z,6.10
2022-11-05T19:16:52.249Z,6.00
2022-11-05T19:19:39.106Z,5.90
2022-11-05T19:22:29.299Z,5.80
2022-11-05T19:25:16.016Z,5.90
2022-11-05T19:28:04.293Z,5.90
2022-11-05T19:30:51.014Z,5.80
2022-11-05T19:33:39.290Z,5.80
2022-11-05T19:36:26.096Z,5.90
2022-11-05T19:39:16.238Z,5.80
2022-11-05T19:42:03.618Z,5.70
2022-11-05T19:44:51.001Z,5.60
2022-11-05T19:47:38.044Z,5.60
2022-11-05T19:50:24.967Z,5.70
2022-11-05T19:53:14.080Z,5.80
2022-11-05T19:56:08.686Z,5.90
2022-11-05T19:58:56.186Z,6.00
2022-11-05T20:01:43.040Z,6.10
2022-11-05T20:04:30.024Z,6.10
2022-11-05T20:07:16.869Z,6.10
2022-11-05T20:10:04.952Z,6.10
2022-11-05T20:12:51.727Z,5.90
2022-11-05T20:15:39.148Z,5.80
2022-11-05T20:18:26.397Z,5.70
2022-11-05T20:21:13.074Z,5.70
2022-11-05T20:23:59.966Z,5.80
2022-11-05T20:26:46.649Z,5.80
2022-11-05T20:29:35.733Z,5.80
2022-11-05T20:32:22.837Z,5.70
2022-11-05T20:35:11.214Z,5.60
2022-11-05T20:37:57.934Z,5.50
2022-11-05T20:40:46.237Z,5.30
2022-11-05T20:43:32.954Z,5.10
2022-11-05T20:46:24.294Z,5.00
2022-11-05T20:49:11.134Z,4.90
2022-11-05T20:51:59.210Z,4.90
2022-11-05T20:54:46.669Z,4.90
2022-11-05T20:57:35.202Z,4.80
2022-11-05T21:00:21.984Z,4.80
2022-11-05T21:03:10.209Z,4.70
2022-11-05T21:05:59.884Z,4.70
2022-11-05T21:08:50.259Z,4.60
2022-11-05T21:11:55.398Z,4.50
2022-11-05T21:14:44.237Z,4.50
2022-11-05T21:17:30.937Z,4.50
2022-11-05T21:20:18.130Z,4.60
2022-11-05T21:23:04.822Z,4.70
2022-11-05T21:25:51.589Z,4.70
2022-11-05T21:28:40.432Z,4.80
2022-11-05T21:31:27.225Z,4.70
2022-11-05T21:34:14.299Z,4.50
2022-11-05T21:37:01.083Z,4.50
2022-11-05T21:39:47.729Z,4.40
2022-11-05T21:42:34.470Z,4.30
2022-11-05T21:45:21.206Z,4.40
2022-11-05T21:48:08.862Z,4.40
2022-11-05T21:51:14.062Z,4.30
2022-11-05T21:54:19.503Z,4.20
2022-11-05T21:57:31.820Z,4.20
2022-11-05T22:00:19.329Z,4.20
2022-11-05T22:03:06.016Z,4.10
2022-11-05T22:05:53.462Z,4.10
2022-11-05T22:08:40.137Z,4.20
2022-11-05T22:11:26.850Z,4.20
2022-11-05T22:14:13.559Z,4.20
2022-11-05T22:17:02.219Z,4.20
2022-11-05T22:19:49.071Z,4.20
2022-11-05T22:22:37.177Z,4.10
2022-11-05T22:25:23.922Z,4.00
2022-11-05T22:28:12.436Z,3.90
2022-11-05T22:30:59.457Z,3.90
2022-11-05T22:33:48.169Z,4.00
2022-11-05T22:36:35.312Z,3.90
2022-11-05T22:39:24.165Z,3.80
2022-11-05T22:42:10.926Z,3.80
2022-11-05T22:45:00.205Z,3.80
2022-11-05T22:47:46.863Z,3.90
2022-11-05T22:50:36.251Z,3.80
2022-11-05T22:53:22.947Z,3.80
2022-11-05T22:56:13.184Z,3.90
2022-11-05T22:59:00.167Z,3.90
2022-11-05T23:01:48.281Z,3.90
2022-11-05T23:04:35.075Z,3.90
2022-11-05T23:07:42.136Z,4.00
2022-11-05T23:10:47.676Z,4.10
2022-11-05T23:13:36.146Z,4.20
2022-11-05T23:16:41.185Z,4.30
2022-11-05T23:19:48.161Z,4.30
2022-11-05T23:22:53.585Z,4.20
2022-11-05T23:25:42.146Z,4.00
2022-11-05T23:28:28.871Z,4.00
2022-11-05T23:31:35.155Z,4.00
2022-11-05T23:34:21.848Z,3.90
2022-11-05T23:37:29.188Z,3.70
2022-11-05T23:40:24.003Z,3.70
2022-11-05T23:43:31.149Z,3.60
2022-11-05T23:46:47.176Z,3.60
2022-11-05T23:49:35.150Z,3.60
2022-11-05T23:52:21.795Z,3.60
2022-11-05T23:55:10.153Z,3.60
2022-11-05T23:57:56.854Z,3.60
